sensor_id;sensor_type;location;lat;lon;timestamp;pressure;altitude;pressure_sealevel;temperature;humidity
11830;BME280;5972;42.134;24.718;2023-02-14T00:01:15;101104.81;;;5.68;63.42
11830;BME280;5972;42.134;24.718;2023-02-14T00:03:42;101105.09;;;5.61;63.74
11830;BME280;5972;42.134;24.718;2023-02-14T00:06:11;101105.34;;;5.60;62.89
11830;BME280;5972;42.134;24.718;2023-02-14T00:08:38;101055.50;;;5.23;62.92
11830;BME280;5972;42.134;24.718;2023-02-14T00:11:05;101090.34;;;5.49;62.77
11830;BME280;5972;42.134;24.718;2023-02-14T00:13:33;101103.75;;;5.49;62.66
11830;BME280;5972;42.134;24.718;2023-02-14T00:16:00;101092.47;;;5.41;63.16
11830;BME280;5972;42.134;24.718;2023-02-14T00:18:27;101094.63;;;5.44;62.97
11830;BME280;5972;42.134;24.718;2023-02-14T00:21:14;101078.03;;;5.27;62.68
11830;BME280;5972;42.134;24.718;2023-02-14T00:23:40;101107.25;;;5.44;62.36
11830;BME280;5972;42.134;24.718;2023-02-14T00:26:12;101106.19;;;5.45;62.46
11830;BME280;5972;42.134;24.718;2023-02-14T00:28:39;101107.81;;;5.46;61.93
11830;BME280;5972;42.134;24.718;2023-02-14T00:31:06;101102.16;;;5.42;61.75
11830;BME280;5972;42.134;24.718;2023-02-14T00:33:34;101097.84;;;5.47;61.30
11830;BME280;5972;42.134;24.718;2023-02-14T00:36:02;101100.81;;;5.50;61.24
11830;BME280;5972;42.134;24.718;2023-02-14T00:38:29;101100.53;;;5.52;61.03
11830;BME280;5972;42.134;24.718;2023-02-14T00:40:56;101098.63;;;5.52;60.25
11830;BME280;5972;42.134;24.718;2023-02-14T00:43:23;101090.59;;;5.47;60.57
11830;BME280;5972;42.134;24.718;2023-02-14T00:45:50;101090.09;;;5.45;60.77
11830;BME280;5972;42.134;24.718;2023-02-14T00:48:17;101090.59;;;5.47;60.41
11830;BME280;5972;42.134;24.718;2023-02-14T00:50:45;101088.44;;;5.49;59.75
11830;BME280;5972;42.134;24.718;2023-02-14T00:53:12;101089.53;;;5.43;60.02
11830;BME280;5972;42.134;24.718;2023-02-14T00:55:39;101096.78;;;5.42;60.11
11830;BME280;5972;42.134;24.718;2023-02-14T00:58:06;101100.00;;;5.44;60.32
11830;BME280;5972;42.134;24.718;2023-02-14T01:00:33;101088.19;;;5.35;60.38
11830;BME280;5972;42.134;24.718;2023-02-14T01:02:59;101081.78;;;5.21;60.36
11830;BME280;5972;42.134;24.718;2023-02-14T01:05:26;101094.91;;;5.33;60.42
11830;BME280;5972;42.134;24.718;2023-02-14T01:07:54;101092.25;;;5.33;60.07
11830;BME280;5972;42.134;24.718;2023-02-14T01:10:21;101086.88;;;5.28;60.47
11830;BME280;5972;42.134;24.718;2023-02-14T01:12:48;101094.66;;;5.19;60.32
11830;BME280;5972;42.134;24.718;2023-02-14T01:15:15;101086.88;;;5.08;61.46
11830;BME280;5972;42.134;24.718;2023-02-14T01:17:41;101092.22;;;5.13;60.79
11830;BME280;5972;42.134;24.718;2023-02-14T01:20:09;101080.44;;;5.14;60.35
11830;BME280;5972;42.134;24.718;2023-02-14T01:22:36;101086.09;;;5.12;60.41
11830;BME280;5972;42.134;24.718;2023-02-14T01:25:04;101081.00;;;5.06;60.64
11830;BME280;5972;42.134;24.718;2023-02-14T01:27:32;101069.19;;;5.07;60.78
11830;BME280;5972;42.134;24.718;2023-02-14T01:29:58;101051.19;;;4.97;60.68
11830;BME280;5972;42.134;24.718;2023-02-14T01:32:25;101066.50;;;5.12;60.71
11830;BME280;5972;42.134;24.718;2023-02-14T01:34:52;101063.25;;;5.15;60.43
11830;BME280;5972;42.134;24.718;2023-02-14T01:37:19;101058.69;;;5.20;61.00
11830;BME280;5972;42.134;24.718;2023-02-14T01:39:45;101063.78;;;5.27;60.96
11830;BME280;5972;42.134;24.718;2023-02-14T01:42:13;101069.72;;;5.29;60.79
11830;BME280;5972;42.134;24.718;2023-02-14T01:44:55;101063.25;;;5.30;60.58
11830;BME280;5972;42.134;24.718;2023-02-14T01:47:23;101071.56;;;5.38;60.16
11830;BME280;5972;42.134;24.718;2023-02-14T01:49:54;101060.81;;;5.43;59.47
11830;BME280;5972;42.134;24.718;2023-02-14T01:52:25;101071.28;;;5.50;58.78
11830;BME280;5972;42.134;24.718;2023-02-14T01:54:56;101072.34;;;5.49;58.32
11830;BME280;5972;42.134;24.718;2023-02-14T01:57:31;101067.78;;;5.50;58.75
11830;BME280;5972;42.134;24.718;2023-02-14T02:00:00;101061.03;;;5.52;58.60
11830;BME280;5972;42.134;24.718;2023-02-14T02:02:42;101048.44;;;5.48;58.62
11830;BME280;5972;42.134;24.718;2023-02-14T02:05:09;101043.06;;;5.53;59.21
11830;BME280;5972;42.134;24.718;2023-02-14T02:07:36;101049.25;;;5.53;57.85
11830;BME280;5972;42.134;24.718;2023-02-14T02:10:06;101022.44;;;5.33;58.46
11830;BME280;5972;42.134;24.718;2023-02-14T02:12:35;101033.72;;;5.45;57.92
11830;BME280;5972;42.134;24.718;2023-02-14T02:15:03;101037.19;;;5.51;57.21
11830;BME280;5972;42.134;24.718;2023-02-14T02:17:40;101036.91;;;5.57;57.35
11830;BME280;5972;42.134;24.718;2023-02-14T02:20:27;101030.97;;;5.55;57.90
11830;BME280;5972;42.134;24.718;2023-02-14T02:26:34;101035.28;;;5.56;56.75
11830;BME280;5972;42.134;24.718;2023-02-14T02:29:37;101032.09;;;5.44;56.96
11830;BME280;5972;42.134;24.718;2023-02-14T02:32:51;101024.03;;;5.49;56.59
11830;BME280;5972;42.134;24.718;2023-02-14T02:35:35;101019.75;;;5.43;57.09
11830;BME280;5972;42.134;24.718;2023-02-14T02:38:22;101000.19;;;5.27;57.24
11830;BME280;5972;42.134;24.718;2023-02-14T02:40:59;101019.25;;;5.26;57.39
11830;BME280;5972;42.134;24.718;2023-02-14T02:43:36;101028.66;;;5.23;58.86
11830;BME280;5972;42.134;24.718;2023-02-14T02:46:11;101013.66;;;5.12;58.26
11830;BME280;5972;42.134;24.718;2023-02-14T02:49:03;101023.31;;;5.18;58.68
11830;BME280;5972;42.134;24.718;2023-02-14T02:51:38;101034.31;;;5.07;59.57
11830;BME280;5972;42.134;24.718;2023-02-14T02:54:32;101021.16;;;5.00;59.59
11830;BME280;5972;42.134;24.718;2023-02-14T02:57:04;101023.84;;;5.05;59.56
11830;BME280;5972;42.134;24.718;2023-02-14T02:59:36;100989.53;;;4.87;59.78
11830;BME280;5972;42.134;24.718;2023-02-14T03:02:08;101005.31;;;5.09;59.66
11830;BME280;5972;42.134;24.718;2023-02-14T03:04:39;101006.94;;;5.10;60.16
11830;BME280;5972;42.134;24.718;2023-02-14T03:07:29;101003.44;;;5.09;59.93
11830;BME280;5972;42.134;24.718;2023-02-14T03:10:07;101005.06;;;5.05;60.10
11830;BME280;5972;42.134;24.718;2023-02-14T03:12:55;100996.72;;;5.01;60.42
11830;BME280;5972;42.134;24.718;2023-02-14T03:15:37;100996.75;;;5.12;60.41
11830;BME280;5972;42.134;24.718;2023-02-14T03:18:08;100989.75;;;5.11;60.58
11830;BME280;5972;42.134;24.718;2023-02-14T03:21:01;100989.22;;;5.14;60.57
11830;BME280;5972;42.134;24.718;2023-02-14T03:23:38;100991.63;;;5.10;60.69
11830;BME280;5972;42.134;24.718;2023-02-14T03:26:09;100992.69;;;5.14;60.09
11830;BME280;5972;42.134;24.718;2023-02-14T03:28:42;100990.00;;;5.19;60.01
11830;BME280;5972;42.134;24.718;2023-02-14T03:31:18;100981.16;;;5.19;60.46
11830;BME280;5972;42.134;24.718;2023-02-14T03:33:50;100974.19;;;5.13;60.55
11830;BME280;5972;42.134;24.718;2023-02-14T03:36:21;100974.72;;;5.20;59.82
11830;BME280;5972;42.134;24.718;2023-02-14T03:38:54;100976.31;;;5.21;59.79
11830;BME280;5972;42.134;24.718;2023-02-14T03:41:25;100985.19;;;5.21;60.18
11830;BME280;5972;42.134;24.718;2023-02-14T03:43:57;100995.66;;;5.18;59.47
11830;BME280;5972;42.134;24.718;2023-02-14T03:46:28;100992.16;;;5.22;59.03
11830;BME280;5972;42.134;24.718;2023-02-14T03:48:58;100990.28;;;5.23;59.12
11830;BME280;5972;42.134;24.718;2023-02-14T03:51:29;100987.31;;;5.24;58.57
11830;BME280;5972;42.134;24.718;2023-02-14T03:54:00;100942.00;;;5.08;58.60
11830;BME280;5972;42.134;24.718;2023-02-14T03:56:31;100988.09;;;5.25;58.42
11830;BME280;5972;42.134;24.718;2023-02-14T03:59:05;101002.88;;;5.22;58.14
11830;BME280;5972;42.134;24.718;2023-02-14T04:01:35;100995.09;;;5.21;58.15
11830;BME280;5972;42.134;24.718;2023-02-14T04:04:06;101007.19;;;5.23;58.01
11830;BME280;5972;42.134;24.718;2023-02-14T04:06:34;101005.28;;;5.19;57.72
11830;BME280;5972;42.134;24.718;2023-02-14T04:09:02;100995.66;;;5.23;58.32
11830;BME280;5972;42.134;24.718;2023-02-14T04:11:32;100982.53;;;5.11;57.94
11830;BME280;5972;42.134;24.718;2023-02-14T04:14:00;100983.31;;;5.17;58.12
11830;BME280;5972;42.134;24.718;2023-02-14T04:16:26;100970.44;;;5.14;58.49
11830;BME280;5972;42.134;24.718;2023-02-14T04:18:53;100972.06;;;5.10;58.83
11830;BME280;5972;42.134;24.718;2023-02-14T04:21:37;100956.50;;;5.01;58.83
11830;BME280;5972;42.134;24.718;2023-02-14T04:24:06;100960.78;;;5.02;59.30
11830;BME280;5972;42.134;24.718;2023-02-14T04:26:32;100956.22;;;5.03;59.78
11830;BME280;5972;42.134;24.718;2023-02-14T04:28:59;100957.03;;;5.03;59.48
11830;BME280;5972;42.134;24.718;2023-02-14T04:31:26;100946.34;;;4.93;59.55
11830;BME280;5972;42.134;24.718;2023-02-14T04:33:53;100947.94;;;4.99;59.23
11830;BME280;5972;42.134;24.718;2023-02-14T04:36:20;100954.91;;;5.06;59.24
11830;BME280;5972;42.134;24.718;2023-02-14T04:38:47;100939.09;;;4.99;58.87
11830;BME280;5972;42.134;24.718;2023-02-14T04:41:15;100944.97;;;5.06;58.78
11830;BME280;5972;42.134;24.718;2023-02-14T04:43:41;100947.91;;;5.10;57.67
11830;BME280;5972;42.134;24.718;2023-02-14T04:46:08;100941.19;;;5.12;57.00
11830;BME280;5972;42.134;24.718;2023-02-14T04:48:35;100935.81;;;5.17;56.65
11830;BME280;5972;42.134;24.718;2023-02-14T04:51:02;100924.00;;;5.13;56.52
11830;BME280;5972;42.134;24.718;2023-02-14T04:53:29;100895.91;;;5.00;56.41
11830;BME280;5972;42.134;24.718;2023-02-14T04:55:56;100934.22;;;5.16;56.41
11830;BME280;5972;42.134;24.718;2023-02-14T04:58:24;100931.53;;;5.11;56.44
11830;BME280;5972;42.134;24.718;2023-02-14T05:00:51;100926.69;;;5.13;56.72
11830;BME280;5972;42.134;24.718;2023-02-14T05:03:17;100917.06;;;5.12;57.22
11830;BME280;5972;42.134;24.718;2023-02-14T05:05:45;100914.63;;;5.11;57.18
11830;BME280;5972;42.134;24.718;2023-02-14T05:08:11;100907.41;;;5.06;57.49
11830;BME280;5972;42.134;24.718;2023-02-14T05:10:39;100903.63;;;5.07;58.23
11830;BME280;5972;42.134;24.718;2023-02-14T05:13:06;100901.50;;;5.09;58.49
11830;BME280;5972;42.134;24.718;2023-02-14T05:15:34;100893.72;;;5.08;58.66
11830;BME280;5972;42.134;24.718;2023-02-14T05:18:01;100900.16;;;5.07;58.27
11830;BME280;5972;42.134;24.718;2023-02-14T05:20:30;100899.06;;;5.08;58.71
11830;BME280;5972;42.134;24.718;2023-02-14T05:22:57;100895.06;;;5.05;59.86
11830;BME280;5972;42.134;24.718;2023-02-14T05:25:27;100899.38;;;5.06;59.83
11830;BME280;5972;42.134;24.718;2023-02-14T05:27:54;100913.56;;;5.17;59.27
11830;BME280;5972;42.134;24.718;2023-02-14T05:30:21;100918.63;;;5.23;59.38
11830;BME280;5972;42.134;24.718;2023-02-14T05:32:53;100918.03;;;5.31;58.88
11830;BME280;5972;42.134;24.718;2023-02-14T05:35:20;100915.88;;;5.38;58.11
11830;BME280;5972;42.134;24.718;2023-02-14T05:37:47;100916.91;;;5.48;58.41
11830;BME280;5972;42.134;24.718;2023-02-14T05:40:14;100912.84;;;5.55;57.68
11830;BME280;5972;42.134;24.718;2023-02-14T05:42:41;100918.94;;;5.71;57.38
11830;BME280;5972;42.134;24.718;2023-02-14T05:45:08;100922.91;;;5.83;56.24
11830;BME280;5972;42.134;24.718;2023-02-14T05:47:35;100915.91;;;5.88;56.20
11830;BME280;5972;42.134;24.718;2023-02-14T05:50:05;100911.56;;;5.97;55.85
11830;BME280;5972;42.134;24.718;2023-02-14T05:52:32;100886.28;;;5.98;54.40
11830;BME280;5972;42.134;24.718;2023-02-14T05:54:59;100888.50;;;6.24;54.14
11830;BME280;5972;42.134;24.718;2023-02-14T05:57:25;100898.97;;;6.60;52.70
11830;BME280;5972;42.134;24.718;2023-02-14T05:59:52;100896.63;;;6.77;52.32
11830;BME280;5972;42.134;24.718;2023-02-14T06:02:19;100892.91;;;6.97;51.12
11830;BME280;5972;42.134;24.718;2023-02-14T06:04:46;100856.97;;;6.88;50.44
11830;BME280;5972;42.134;24.718;2023-02-14T06:07:14;100892.31;;;7.29;49.72
11830;BME280;5972;42.134;24.718;2023-02-14T06:09:41;100876.56;;;7.36;48.97
11830;BME280;5972;42.134;24.718;2023-02-14T06:12:07;100901.22;;;7.67;48.79
11830;BME280;5972;42.134;24.718;2023-02-14T06:14:34;100907.13;;;7.87;47.90
11830;BME280;5972;42.134;24.718;2023-02-14T06:17:01;100911.25;;;8.17;47.39
11830;BME280;5972;42.134;24.718;2023-02-14T06:19:28;100910.25;;;8.32;46.99
11830;BME280;5972;42.134;24.718;2023-02-14T06:21:54;100897.84;;;8.31;46.34
11830;BME280;5972;42.134;24.718;2023-02-14T06:24:23;100902.75;;;8.61;45.77
11830;BME280;5972;42.134;24.718;2023-02-14T06:26:49;100909.28;;;8.88;45.27
11830;BME280;5972;42.134;24.718;2023-02-14T06:29:16;100904.88;;;8.92;44.71
11830;BME280;5972;42.134;24.718;2023-02-14T06:31:43;100879.25;;;8.75;44.52
11830;BME280;5972;42.134;24.718;2023-02-14T06:34:10;100896.25;;;8.62;45.26
11830;BME280;5972;42.134;24.718;2023-02-14T06:36:37;100895.91;;;8.50;45.54
11830;BME280;5972;42.134;24.718;2023-02-14T06:39:04;100898.56;;;8.37;45.79
11830;BME280;5972;42.134;24.718;2023-02-14T06:41:32;100895.97;;;8.13;46.40
11830;BME280;5972;42.134;24.718;2023-02-14T06:43:59;100894.81;;;8.00;47.17
11830;BME280;5972;42.134;24.718;2023-02-14T06:46:26;100883.47;;;7.84;47.29
11830;BME280;5972;42.134;24.718;2023-02-14T06:48:53;100901.16;;;7.90;47.31
11830;BME280;5972;42.134;24.718;2023-02-14T06:51:20;100912.28;;;8.03;47.17
11830;BME280;5972;42.134;24.718;2023-02-14T06:53:46;100908.94;;;8.11;47.29
11830;BME280;5972;42.134;24.718;2023-02-14T06:56:13;100910.09;;;8.23;47.11
11830;BME280;5972;42.134;24.718;2023-02-14T06:58:41;100901.13;;;8.47;46.63
11830;BME280;5972;42.134;24.718;2023-02-14T07:01:08;100905.78;;;8.87;45.90
11830;BME280;5972;42.134;24.718;2023-02-14T07:03:35;100904.38;;;9.44;45.01
11830;BME280;5972;42.134;24.718;2023-02-14T07:06:02;100895.16;;;10.62;42.66
11830;BME280;5972;42.134;24.718;2023-02-14T07:08:29;100896.06;;;11.76;40.16
11830;BME280;5972;42.134;24.718;2023-02-14T07:10:56;100899.13;;;12.72;38.28
11830;BME280;5972;42.134;24.718;2023-02-14T07:13:24;100902.31;;;13.71;36.58
11830;BME280;5972;42.134;24.718;2023-02-14T07:15:53;100896.03;;;14.33;35.07
11830;BME280;5972;42.134;24.718;2023-02-14T07:18:20;100872.38;;;14.90;34.12
11830;BME280;5972;42.134;24.718;2023-02-14T07:20:48;100889.22;;;15.53;33.36
11830;BME280;5972;42.134;24.718;2023-02-14T07:23:15;100873.34;;;16.11;32.25
11830;BME280;5972;42.134;24.718;2023-02-14T07:25:41;100877.63;;;16.68;31.54
11830;BME280;5972;42.134;24.718;2023-02-14T07:28:08;100897.41;;;16.77;31.44
11830;BME280;5972;42.134;24.718;2023-02-14T07:30:35;100868.19;;;16.81;30.80
11830;BME280;5972;42.134;24.718;2023-02-14T07:33:03;100881.34;;;16.91;30.79
11830;BME280;5972;42.134;24.718;2023-02-14T07:35:30;100881.94;;;17.16;30.56
11830;BME280;5972;42.134;24.718;2023-02-14T07:37:57;100882.97;;;17.42;30.30
11830;BME280;5972;42.134;24.718;2023-02-14T07:40:24;100872.31;;;17.57;30.08
11830;BME280;5972;42.134;24.718;2023-02-14T07:42:52;100869.34;;;17.62;29.65
11830;BME280;5972;42.134;24.718;2023-02-14T07:45:19;100870.94;;;18.01;29.26
11830;BME280;5972;42.134;24.718;2023-02-14T07:47:46;100879.53;;;17.80;29.38
11830;BME280;5972;42.134;24.718;2023-02-14T07:50:15;100874.19;;;18.26;29.02
11830;BME280;5972;42.134;24.718;2023-02-14T07:52:42;100871.41;;;18.64;28.19
11830;BME280;5972;42.134;24.718;2023-02-14T07:55:09;100871.44;;;18.68;28.14
11830;BME280;5972;42.134;24.718;2023-02-14T07:57:36;100846.38;;;18.05;28.27
11830;BME280;5972;42.134;24.718;2023-02-14T08:00:04;100877.28;;;17.86;28.94
11830;BME280;5972;42.134;24.718;2023-02-14T08:02:31;100872.50;;;18.83;28.03
11830;BME280;5972;42.134;24.718;2023-02-14T08:04:58;100872.47;;;19.05;27.46
11830;BME280;5972;42.134;24.718;2023-02-14T08:07:26;100871.53;;;18.94;27.80
11830;BME280;5972;42.134;24.718;2023-02-14T08:09:55;100864.19;;;19.28;27.38
11830;BME280;5972;42.134;24.718;2023-02-14T08:12:21;100863.81;;;19.30;27.39
11830;BME280;5972;42.134;24.718;2023-02-14T08:15:06;100869.31;;;18.81;27.77
11830;BME280;5972;42.134;24.718;2023-02-14T08:17:51;100878.22;;;18.97;28.00
11830;BME280;5972;42.134;24.718;2023-02-14T08:20:17;100876.66;;;18.54;28.43
11830;BME280;5972;42.134;24.718;2023-02-14T08:22:46;100892.78;;;18.55;28.33
11830;BME280;5972;42.134;24.718;2023-02-14T08:25:13;100887.72;;;18.57;28.58
11830;BME280;5972;42.134;24.718;2023-02-14T08:27:39;100903.78;;;18.40;28.96
11830;BME280;5972;42.134;24.718;2023-02-14T08:30:07;100896.06;;;18.64;28.48
11830;BME280;5972;42.134;24.718;2023-02-14T08:32:34;100879.97;;;18.86;28.45
11830;BME280;5972;42.134;24.718;2023-02-14T08:35:01;100892.56;;;19.39;27.74
11830;BME280;5972;42.134;24.718;2023-02-14T08:37:28;100910.03;;;19.77;27.40
11830;BME280;5972;42.134;24.718;2023-02-14T08:39:56;100898.28;;;19.50;27.67
11830;BME280;5972;42.134;24.718;2023-02-14T08:42:23;100886.72;;;19.15;27.66
11830;BME280;5972;42.134;24.718;2023-02-14T08:44:49;100893.09;;;19.71;27.40
11830;BME280;5972;42.134;24.718;2023-02-14T08:47:16;100899.81;;;20.07;27.19
11830;BME280;5972;42.134;24.718;2023-02-14T08:49:43;100900.22;;;19.49;27.32
11830;BME280;5972;42.134;24.718;2023-02-14T08:52:10;100878.78;;;19.88;26.98
11830;BME280;5972;42.134;24.718;2023-02-14T08:54:37;100896.38;;;20.51;26.47
11830;BME280;5972;42.134;24.718;2023-02-14T08:57:05;100870.31;;;19.71;27.20
11830;BME280;5972;42.134;24.718;2023-02-14T08:59:32;100877.66;;;19.93;26.91
11830;BME280;5972;42.134;24.718;2023-02-14T09:01:58;100865.78;;;20.52;26.56
11830;BME280;5972;42.134;24.718;2023-02-14T09:04:25;100868.50;;;20.49;26.35
11830;BME280;5972;42.134;24.718;2023-02-14T09:06:52;100868.44;;;20.45;26.16
11830;BME280;5972;42.134;24.718;2023-02-14T09:09:19;100863.50;;;20.24;26.39
11830;BME280;5972;42.134;24.718;2023-02-14T09:11:46;100858.81;;;20.28;26.46
11830;BME280;5972;42.134;24.718;2023-02-14T09:14:14;100839.81;;;20.13;26.60
11830;BME280;5972;42.134;24.718;2023-02-14T09:16:41;100840.84;;;20.01;27.00
11830;BME280;5972;42.134;24.718;2023-02-14T09:19:08;100844.59;;;20.19;27.13
11830;BME280;5972;42.134;24.718;2023-02-14T09:21:34;100832.25;;;19.43;27.51
11830;BME280;5972;42.134;24.718;2023-02-14T09:24:01;100838.31;;;19.29;27.43
11830;BME280;5972;42.134;24.718;2023-02-14T09:26:28;100837.13;;;19.27;27.44
11830;BME280;5972;42.134;24.718;2023-02-14T09:28:55;100843.47;;;19.04;27.77
11830;BME280;5972;42.134;24.718;2023-02-14T09:31:24;100846.84;;;18.29;28.30
11830;BME280;5972;42.134;24.718;2023-02-14T09:33:51;100835.00;;;18.67;28.13
11830;BME280;5972;42.134;24.718;2023-02-14T09:36:18;100825.00;;;18.79;27.62
11830;BME280;5972;42.134;24.718;2023-02-14T09:38:45;100830.13;;;18.57;28.28
11830;BME280;5972;42.134;24.718;2023-02-14T09:41:31;100829.31;;;18.34;28.58
11830;BME280;5972;42.134;24.718;2023-02-14T09:44:01;100807.16;;;18.43;28.34
11830;BME280;5972;42.134;24.718;2023-02-14T09:46:38;100835.09;;;18.52;28.23
11830;BME280;5972;42.134;24.718;2023-02-14T09:49:07;100830.13;;;18.57;28.45
11830;BME280;5972;42.134;24.718;2023-02-14T09:51:45;100837.22;;;18.16;28.77
11830;BME280;5972;42.134;24.718;2023-02-14T09:54:15;100822.59;;;18.09;28.98
11830;BME280;5972;42.134;24.718;2023-02-14T09:56:50;100826.38;;;18.23;29.07
11830;BME280;5972;42.134;24.718;2023-02-14T09:59:25;100812.38;;;18.28;28.73
11830;BME280;5972;42.134;24.718;2023-02-14T10:01:58;100809.22;;;18.26;28.59
11830;BME280;5972;42.134;24.718;2023-02-14T10:04:31;100807.19;;;18.46;28.33
11830;BME280;5972;42.134;24.718;2023-02-14T10:07:05;100807.94;;;18.20;28.96
11830;BME280;5972;42.134;24.718;2023-02-14T10:09:54;100794.69;;;17.84;29.00
11830;BME280;5972;42.134;24.718;2023-02-14T10:12:28;100790.84;;;18.08;29.19
11830;BME280;5972;42.134;24.718;2023-02-14T10:14:59;100770.75;;;17.23;29.81
11830;BME280;5972;42.134;24.718;2023-02-14T10:17:34;100801.44;;;16.97;30.57
11830;BME280;5972;42.134;24.718;2023-02-14T10:20:05;100794.28;;;16.93;30.89
11830;BME280;5972;42.134;24.718;2023-02-14T10:22:40;100790.66;;;16.26;31.58
11830;BME280;5972;42.134;24.718;2023-02-14T10:25:17;100796.66;;;16.47;31.66
11830;BME280;5972;42.134;24.718;2023-02-14T10:27:46;100787.41;;;16.52;31.79
11830;BME280;5972;42.134;24.718;2023-02-14T10:30:16;100777.34;;;17.03;31.03
11830;BME280;5972;42.134;24.718;2023-02-14T10:32:48;100782.91;;;17.61;30.36
11830;BME280;5972;42.134;24.718;2023-02-14T10:35:22;100771.84;;;17.96;29.77
11830;BME280;5972;42.134;24.718;2023-02-14T10:38:00;100768.13;;;18.49;29.33
11830;BME280;5972;42.134;24.718;2023-02-14T10:41:02;100771.91;;;18.90;28.71
11830;BME280;5972;42.134;24.718;2023-02-14T10:43:35;100754.81;;;18.74;28.78
11830;BME280;5972;42.134;24.718;2023-02-14T10:46:10;100758.19;;;18.64;28.89
11830;BME280;5972;42.134;24.718;2023-02-14T10:48:50;100757.03;;;18.42;28.88
11830;BME280;5972;42.134;24.718;2023-02-14T10:51:23;100752.78;;;18.22;29.02
11830;BME280;5972;42.134;24.718;2023-02-14T10:54:09;100756.19;;;18.15;28.84
11830;BME280;5972;42.134;24.718;2023-02-14T10:56:43;100749.63;;;18.01;29.00
11830;BME280;5972;42.134;24.718;2023-02-14T10:59:18;100719.00;;;17.72;29.34
11830;BME280;5972;42.134;24.718;2023-02-14T11:01:49;100724.13;;;17.55;29.68
11830;BME280;5972;42.134;24.718;2023-02-14T11:04:21;100736.88;;;18.08;29.56
11830;BME280;5972;42.134;24.718;2023-02-14T11:06:49;100726.09;;;18.19;29.38
11830;BME280;5972;42.134;24.718;2023-02-14T11:09:17;100722.31;;;18.50;29.16
11830;BME280;5972;42.134;24.718;2023-02-14T11:11:49;100708.56;;;18.23;29.68
11830;BME280;5972;42.134;24.718;2023-02-14T11:14:23;100713.16;;;18.16;29.13
11830;BME280;5972;42.134;24.718;2023-02-14T11:16:51;100722.22;;;17.59;29.69
11830;BME280;5972;42.134;24.718;2023-02-14T11:19:23;100723.09;;;17.05;30.74
11830;BME280;5972;42.134;24.718;2023-02-14T11:21:51;100716.19;;;16.45;31.43
11830;BME280;5972;42.134;24.718;2023-02-14T11:24:25;100722.00;;;16.12;31.99
11830;BME280;5972;42.134;24.718;2023-02-14T11:26:54;100716.31;;;15.73;32.75
11830;BME280;5972;42.134;24.718;2023-02-14T11:29:26;100694.16;;;15.47;33.42
11830;BME280;5972;42.134;24.718;2023-02-14T11:31:53;100720.22;;;15.32;33.94
11830;BME280;5972;42.134;24.718;2023-02-14T11:34:31;100700.47;;;15.23;34.05
11830;BME280;5972;42.134;24.718;2023-02-14T11:37:01;100702.50;;;14.98;34.48
11830;BME280;5972;42.134;24.718;2023-02-14T11:39:30;100682.66;;;14.74;34.55
11830;BME280;5972;42.134;24.718;2023-02-14T11:42:01;100682.41;;;14.91;34.15
11830;BME280;5972;42.134;24.718;2023-02-14T11:44:30;100689.88;;;14.94;34.52
11830;BME280;5972;42.134;24.718;2023-02-14T11:47:16;100704.47;;;14.74;34.90
11830;BME280;5972;42.134;24.718;2023-02-14T11:49:55;100693.13;;;14.60;35.25
11830;BME280;5972;42.134;24.718;2023-02-14T11:52:23;100709.44;;;14.35;35.61
11830;BME280;5972;42.134;24.718;2023-02-14T11:54:55;100692.06;;;14.15;35.87
11830;BME280;5972;42.134;24.718;2023-02-14T11:57:24;100703.72;;;13.92;36.45
11830;BME280;5972;42.134;24.718;2023-02-14T11:59:54;100676.66;;;13.62;36.44
11830;BME280;5972;42.134;24.718;2023-02-14T12:02:29;100685.78;;;13.91;36.40
11830;BME280;5972;42.134;24.718;2023-02-14T12:05:02;100680.59;;;13.98;36.27
11830;BME280;5972;42.134;24.718;2023-02-14T12:07:31;100658.53;;;13.66;36.63
11830;BME280;5972;42.134;24.718;2023-02-14T12:10:15;100687.47;;;13.83;36.60
11830;BME280;5972;42.134;24.718;2023-02-14T12:12:54;100690.38;;;13.66;36.40
11830;BME280;5972;42.134;24.718;2023-02-14T12:15:31;100692.66;;;13.43;36.88
11830;BME280;5972;42.134;24.718;2023-02-14T12:21:09;100667.25;;;12.85;37.56
11830;BME280;5972;42.134;24.718;2023-02-14T12:23:42;100636.69;;;12.88;37.86
11830;BME280;5972;42.134;24.718;2023-02-14T12:26:18;100664.72;;;13.22;37.83
11830;BME280;5972;42.134;24.718;2023-02-14T12:28:55;100670.16;;;13.55;37.41
11830;BME280;5972;42.134;24.718;2023-02-14T12:31:23;100674.06;;;13.33;37.55
11830;BME280;5972;42.134;24.718;2023-02-14T12:33:50;100665.09;;;13.32;37.27
11830;BME280;5972;42.134;24.718;2023-02-14T12:36:31;100675.03;;;13.49;37.08
11830;BME280;5972;42.134;24.718;2023-02-14T12:39:04;100667.81;;;13.53;37.21
11830;BME280;5972;42.134;24.718;2023-02-14T12:41:41;100664.81;;;13.46;37.26
11830;BME280;5972;42.134;24.718;2023-02-14T12:44:20;100678.91;;;13.60;37.76
11830;BME280;5972;42.134;24.718;2023-02-14T12:47:13;100634.59;;;13.48;37.90
11830;BME280;5972;42.134;24.718;2023-02-14T12:50:14;100654.78;;;13.71;38.14
11830;BME280;5972;42.134;24.718;2023-02-14T12:52:57;100659.66;;;13.65;37.96
11830;BME280;5972;42.134;24.718;2023-02-14T12:55:39;100651.59;;;13.57;37.64
11830;BME280;5972;42.134;24.718;2023-02-14T12:58:17;100657.78;;;13.45;37.76
11830;BME280;5972;42.134;24.718;2023-02-14T13:00:54;100642.59;;;13.44;37.80
11830;BME280;5972;42.134;24.718;2023-02-14T13:03:42;100652.25;;;13.42;38.14
11830;BME280;5972;42.134;24.718;2023-02-14T13:06:17;100653.09;;;13.33;37.98
11830;BME280;5972;42.134;24.718;2023-02-14T13:09:03;100638.88;;;13.16;37.89
11830;BME280;5972;42.134;24.718;2023-02-14T13:11:38;100658.56;;;13.13;38.25
11830;BME280;5972;42.134;24.718;2023-02-14T13:14:23;100655.97;;;12.96;38.56
11830;BME280;5972;42.134;24.718;2023-02-14T13:16:57;100655.38;;;12.69;39.34
11830;BME280;5972;42.134;24.718;2023-02-14T13:19:33;100651.44;;;12.58;39.40
11830;BME280;5972;42.134;24.718;2023-02-14T13:22:05;100669.78;;;12.61;39.35